createdAt,value
2022-08-21T00:02:02.616Z,16.80
2022-08-21T00:04:30.078Z,16.80
2022-08-21T00:06:58.202Z,16.80
2022-08-21T00:09:24.924Z,16.70
2022-08-21T00:11:51.645Z,16.70
2022-08-21T00:14:18.349Z,16.70
2022-08-21T00:16:45.204Z,16.70
2022-08-21T00:19:12.276Z,16.70
2022-08-21T00:21:39.614Z,16.70
2022-08-21T00:24:07.704Z,16.70
2022-08-21T00:26:34.569Z,16.60
2022-08-21T00:29:04.223Z,16.60
2022-08-21T00:31:31.014Z,16.60
2022-08-21T00:34:00.789Z,16.50
2022-08-21T00:36:28.101Z,16.50
2022-08-21T00:38:54.827Z,16.50
2022-08-21T00:41:37.523Z,16.50
2022-08-21T00:44:10.161Z,16.50
2022-08-21T00:46:38.700Z,16.50
2022-08-21T00:49:06.930Z,16.50
2022-08-21T00:51:42.144Z,16.50
2022-08-21T00:54:18.156Z,16.40
2022-08-21T00:56:48.954Z,16.40
2022-08-21T00:59:18.642Z,16.40
2022-08-21T01:01:45.772Z,16.40
2022-08-21T01:04:13.004Z,16.30
2022-08-21T01:06:40.437Z,16.30
2022-08-21T01:09:07.306Z,16.30
2022-08-21T01:11:34.341Z,16.30
2022-08-21T01:14:01.265Z,16.30
2022-08-21T01:16:28.921Z,16.20
2022-08-21T01:18:55.829Z,16.20
2022-08-21T01:21:27.979Z,16.20
2022-08-21T01:23:57.543Z,16.20
2022-08-21T01:26:34.240Z,16.20
2022-08-21T01:29:06.657Z,16.20
2022-08-21T01:31:34.003Z,16.20
2022-08-21T01:34:01.378Z,16.20
2022-08-21T01:36:28.456Z,16.20
2022-08-21T01:38:55.323Z,16.20
2022-08-21T01:41:21.995Z,16.20
2022-08-21T01:43:48.873Z,16.20
2022-08-21T01:46:16.182Z,16.10
2022-08-21T01:48:43.382Z,16.10
2022-08-21T01:51:10.706Z,16.10
2022-08-21T01:53:37.762Z,16.10
2022-08-21T01:56:12.514Z,16.10
2022-08-21T01:58:40.974Z,16.10
2022-08-21T02:01:07.886Z,16.10
2022-08-21T02:03:36.133Z,16.10
2022-08-21T02:06:05.310Z,16.10
2022-08-21T02:08:32.198Z,16.10
2022-08-21T02:10:58.951Z,16.10
2022-08-21T02:13:25.856Z,16.00
2022-08-21T02:15:52.838Z,16.00
2022-08-21T02:18:19.581Z,16.00
2022-08-21T02:20:48.794Z,16.00
2022-08-21T02:23:26.497Z,16.00
2022-08-21T02:25:55.158Z,15.90
2022-08-21T02:28:22.460Z,16.00
2022-08-21T02:30:50.121Z,15.90
2022-08-21T02:33:17.267Z,15.90
2022-08-21T02:35:45.454Z,15.90
2022-08-21T02:38:18.958Z,15.90
2022-08-21T02:40:50.942Z,15.90
2022-08-21T02:43:19.431Z,15.90
2022-08-21T02:45:46.978Z,15.90
2022-08-21T02:48:18.365Z,15.90
2022-08-21T02:50:52.813Z,15.90
2022-08-21T02:53:20.757Z,15.90
2022-08-21T02:55:49.498Z,15.80
2022-08-21T02:58:25.858Z,15.90
2022-08-21T03:00:52.988Z,15.90
2022-08-21T03:03:22.039Z,15.90
2022-08-21T03:05:49.190Z,15.90
2022-08-21T03:08:16.412Z,15.80
2022-08-21T03:10:49.630Z,15.80
2022-08-21T03:13:18.292Z,15.80
2022-08-21T03:15:45.705Z,15.80
2022-08-21T03:18:12.999Z,15.80
2022-08-21T03:20:41.177Z,15.80
2022-08-21T03:23:12.687Z,15.80
2022-08-21T03:25:42.219Z,15.80
2022-08-21T03:28:13.807Z,15.80
2022-08-21T03:30:44.422Z,15.70
2022-08-21T03:33:12.976Z,15.70
2022-08-21T03:35:43.781Z,15.70
2022-08-21T03:38:10.876Z,15.70
2022-08-21T03:40:37.552Z,15.70
2022-08-21T03:43:04.399Z,15.60
2022-08-21T03:45:31.062Z,15.60
2022-08-21T03:48:04.456Z,15.60
2022-08-21T03:50:35.548Z,15.60
2022-08-21T03:53:16.914Z,15.50
2022-08-21T03:55:47.330Z,15.50
2022-08-21T03:58:16.845Z,15.40
2022-08-21T04:00:46.092Z,15.50
2022-08-21T04:03:12.840Z,15.50
2022-08-21T04:05:39.683Z,15.40
2022-08-21T04:08:06.918Z,15.40
2022-08-21T04:10:37.264Z,15.40
2022-08-21T04:13:05.607Z,15.40
2022-08-21T04:15:32.334Z,15.40
2022-08-21T04:17:59.864Z,15.30
2022-08-21T04:20:27.235Z,15.40
2022-08-21T04:22:54.424Z,15.40
2022-08-21T04:25:22.956Z,15.40
2022-08-21T04:27:50.168Z,15.40
2022-08-21T04:30:17.575Z,15.40
2022-08-21T04:32:50.055Z,15.40
2022-08-21T04:35:19.384Z,15.40
2022-08-21T04:37:46.073Z,15.40
2022-08-21T04:40:15.136Z,15.40
2022-08-21T04:42:50.251Z,15.40
2022-08-21T04:45:18.206Z,15.40
2022-08-21T04:47:52.373Z,15.30
2022-08-21T04:50:24.603Z,15.40
2022-08-21T04:52:51.500Z,15.40
2022-08-21T04:55:19.857Z,15.40
2022-08-21T04:57:48.815Z,15.50
2022-08-21T05:00:19.386Z,15.50
2022-08-21T05:02:48.631Z,15.50
2022-08-21T05:05:16.978Z,15.50
2022-08-21T05:07:44.781Z,15.60
2022-08-21T05:10:12.556Z,15.60
2022-08-21T05:12:42.732Z,15.60
2022-08-21T05:15:13.277Z,15.60
2022-08-21T05:17:41.466Z,15.70
2022-08-21T05:20:12.220Z,15.70
2022-08-21T05:22:39.285Z,15.70
2022-08-21T05:25:10.444Z,15.90
2022-08-21T05:27:39.022Z,16.20
2022-08-21T05:30:08.573Z,16.80
2022-08-21T05:32:36.134Z,17.20
2022-08-21T05:35:04.926Z,17.50
2022-08-21T05:37:31.656Z,17.50
2022-08-21T05:40:05.284Z,17.50
2022-08-21T05:42:45.390Z,17.50
2022-08-21T05:45:25.110Z,17.60
2022-08-21T05:48:10.773Z,17.60
2022-08-21T05:50:38.983Z,17.70
2022-08-21T05:53:07.246Z,17.80
2022-08-21T05:55:34.699Z,17.90
2022-08-21T05:58:01.635Z,18.10
2022-08-21T06:00:28.471Z,18.60
2022-08-21T06:02:55.286Z,19.10
2022-08-21T06:05:36.576Z,19.40
2022-08-21T06:08:04.740Z,19.90
2022-08-21T06:10:32.147Z,20.60
2022-08-21T06:12:59.102Z,21.10
2022-08-21T06:15:26.173Z,21.20
2022-08-21T06:17:54.561Z,21.20
2022-08-21T06:20:21.644Z,21.30
2022-08-21T06:22:48.312Z,21.20
2022-08-21T06:25:15.037Z,21.20
2022-08-21T06:27:41.801Z,21.10
2022-08-21T06:30:09.192Z,21.00
2022-08-21T06:32:36.648Z,20.90
2022-08-21T06:35:04.863Z,20.80
2022-08-21T06:37:32.268Z,20.70
2022-08-21T06:39:59.041Z,20.60
2022-08-21T06:42:28.214Z,20.40
2022-08-21T06:44:55.302Z,20.40
2022-08-21T06:47:22.138Z,20.40
2022-08-21T06:49:48.868Z,20.50
2022-08-21T06:52:16.926Z,20.60
2022-08-21T06:54:43.718Z,20.60
2022-08-21T06:57:10.751Z,20.70
2022-08-21T06:59:37.570Z,20.70
2022-08-21T07:02:04.616Z,20.80
2022-08-21T07:04:31.335Z,20.80
2022-08-21T07:06:58.160Z,20.80
2022-08-21T07:09:25.096Z,20.90
2022-08-21T07:11:54.797Z,20.90
2022-08-21T07:14:21.824Z,21.00
2022-08-21T07:16:49.962Z,20.90
2022-08-21T07:19:16.876Z,21.00
2022-08-21T07:21:43.549Z,21.10
2022-08-21T07:24:10.706Z,21.10
2022-08-21T07:26:37.669Z,21.20
2022-08-21T07:29:04.837Z,21.30
2022-08-21T07:31:32.506Z,21.40
2022-08-21T07:33:59.739Z,21.50
2022-08-21T07:36:26.936Z,21.50
2022-08-21T07:38:53.992Z,21.60
2022-08-21T07:41:24.746Z,21.70
2022-08-21T07:43:52.916Z,21.70
2022-08-21T07:46:20.429Z,21.80
2022-08-21T07:48:47.271Z,21.80
2022-08-21T07:51:16.125Z,22.00
2022-08-21T07:53:43.289Z,22.00
2022-08-21T07:56:11.986Z,22.00
2022-08-21T07:58:38.809Z,22.10
2022-08-21T08:01:07.501Z,22.20
2022-08-21T08:03:34.872Z,22.30
2022-08-21T08:06:01.779Z,22.40
2022-08-21T08:08:29.361Z,22.40
2022-08-21T08:10:58.578Z,22.50
2022-08-21T08:13:25.897Z,22.50
2022-08-21T08:15:52.976Z,22.60
2022-08-21T08:18:20.009Z,22.70
2022-08-21T08:20:46.679Z,22.80
2022-08-21T08:23:14.814Z,22.90
2022-08-21T08:25:41.790Z,23.00
2022-08-21T08:28:17.021Z,23.10
2022-08-21T08:30:47.500Z,22.90
2022-08-21T08:33:15.664Z,23.00
2022-08-21T08:35:45.816Z,23.10
2022-08-21T08:38:13.105Z,23.30
2022-08-21T08:40:52.757Z,23.40
2022-08-21T08:43:20.204Z,23.40
2022-08-21T08:45:51.224Z,23.50
2022-08-21T08:48:46.359Z,23.70
2022-08-21T08:51:23.038Z,23.80
2022-08-21T08:53:55.381Z,23.70
2022-08-21T08:56:29.902Z,23.50
2022-08-21T08:59:03.740Z,23.60
2022-08-21T09:01:32.642Z,23.80
2022-08-21T09:04:02.386Z,24.00
2022-08-21T09:06:44.110Z,23.90
2022-08-21T09:09:25.298Z,23.80
2022-08-21T09:12:12.922Z,23.80
2022-08-21T09:15:19.807Z,23.90
2022-08-21T09:18:07.872Z,23.70
2022-08-21T09:21:02.814Z,23.60
2022-08-21T09:23:47.569Z,23.60
2022-08-21T09:26:20.580Z,23.50
2022-08-21T09:28:55.716Z,23.50
2022-08-21T09:31:32.092Z,23.70
2022-08-21T09:34:07.338Z,23.80
2022-08-21T09:36:39.893Z,23.90
2022-08-21T09:39:08.357Z,24.00
2022-08-21T09:41:37.453Z,23.90
2022-08-21T09:44:06.769Z,23.80
2022-08-21T09:46:34.026Z,23.60
2022-08-21T09:49:03.561Z,23.70
2022-08-21T09:51:37.988Z,23.80
2022-08-21T09:54:07.736Z,23.70
2022-08-21T09:56:58.824Z,23.60
2022-08-21T09:59:36.294Z,23.50
2022-08-21T10:02:28.763Z,23.40
2022-08-21T10:05:00.069Z,23.40
2022-08-21T10:07:27.941Z,23.40
2022-08-21T10:10:06.640Z,23.40
2022-08-21T10:12:49.470Z,23.40
2022-08-21T10:15:24.964Z,23.70
2022-08-21T10:18:17.266Z,23.80
2022-08-21T10:21:13.124Z,24.10
2022-08-21T10:24:01.638Z,24.50
2022-08-21T10:26:37.180Z,24.60
2022-08-21T10:29:16.158Z,24.80
2022-08-21T10:31:51.477Z,24.90
2022-08-21T10:34:20.901Z,25.10
2022-08-21T10:37:10.980Z,25.30
2022-08-21T10:40:12.203Z,25.40
2022-08-21T10:43:03.759Z,25.40
2022-08-21T10:45:39.179Z,25.50
2022-08-21T10:48:08.964Z,25.70
2022-08-21T10:50:47.212Z,25.60
2022-08-21T10:53:47.801Z,25.60
2022-08-21T10:56:23.362Z,25.60
2022-08-21T10:59:03.225Z,25.80
2022-08-21T11:01:39.596Z,25.60
2022-08-21T11:04:49.587Z,25.60
2022-08-21T11:07:58.992Z,25.50
2022-08-21T11:10:51.339Z,25.10
2022-08-21T11:14:00.615Z,25.00
2022-08-21T11:16:54.137Z,24.90
2022-08-21T11:19:25.324Z,25.00
2022-08-21T11:21:55.637Z,25.20
2022-08-21T11:24:37.722Z,25.30
2022-08-21T11:27:27.691Z,25.10
2022-08-21T11:29:57.574Z,25.10
2022-08-21T11:32:30.336Z,25.10
2022-08-21T11:35:12.382Z,24.90
2022-08-21T11:37:54.603Z,24.90
2022-08-21T11:40:51.218Z,24.80
2022-08-21T11:43:43.396Z,24.70
2022-08-21T11:46:42.971Z,24.80
2022-08-21T11:49:27.192Z,24.90
2022-08-21T11:52:03.034Z,25.00
2022-08-21T11:54:44.221Z,25.30
2022-08-21T11:57:59.217Z,25.70
2022-08-21T12:00:41.345Z,25.80
2022-08-21T12:03:16.493Z,25.80
2022-08-21T12:05:59.417Z,25.90
2022-08-21T12:08:32.267Z,26.00
2022-08-21T12:11:17.290Z,25.90
2022-08-21T12:14:01.662Z,26.00
2022-08-21T12:16:37.666Z,26.10
2022-08-21T12:19:21.259Z,26.30
2022-08-21T12:21:52.966Z,26.50
2022-08-21T12:24:36.687Z,26.50
2022-08-21T12:27:20.830Z,26.60
2022-08-21T12:29:53.091Z,26.40
2022-08-21T12:32:26.054Z,26.30
2022-08-21T12:34:58.560Z,26.00
2022-08-21T12:37:53.197Z,26.20
2022-08-21T12:40:25.592Z,26.20
2022-08-21T12:42:58.961Z,26.00
2022-08-21T12:45:44.713Z,25.90
2022-08-21T12:48:29.736Z,25.80
2022-08-21T12:50:59.012Z,25.70
2022-08-21T12:53:35.634Z,25.80
2022-08-21T12:56:10.830Z,26.10
2022-08-21T12:58:41.838Z,26.30
2022-08-21T13:01:41.974Z,26.40
2022-08-21T13:04:16.399Z,26.60
2022-08-21T13:06:46.740Z,26.70
2022-08-21T13:09:19.436Z,26.70
2022-08-21T13:11:48.112Z,26.50
2022-08-21T13:14:45.910Z,26.20
2022-08-21T13:17:13.781Z,25.90
2022-08-21T13:20:02.591Z,25.80
2022-08-21T13:22:33.705Z,26.10
2022-08-21T13:25:06.531Z,26.20
2022-08-21T13:27:34.417Z,26.10
2022-08-21T13:30:13.884Z,26.10
2022-08-21T13:32:47.024Z,26.00
2022-08-21T13:35:29.563Z,25.80
2022-08-21T13:37:56.884Z,25.70
2022-08-21T13:40:29.065Z,25.70
2022-08-21T13:42:57.119Z,25.60
2022-08-21T13:45:32.172Z,25.70
2022-08-21T13:48:05.997Z,25.80
2022-08-21T13:50:35.976Z,26.00
2022-08-21T13:53:05.994Z,26.00
2022-08-21T13:55:44.101Z,25.80
2022-08-21T13:58:12.614Z,26.00
2022-08-21T14:00:49.646Z,26.20
2022-08-21T14:03:37.684Z,26.40
2022-08-21T14:06:23.111Z,26.20
2022-08-21T14:09:09.216Z,26.20
2022-08-21T14:11:37.443Z,26.10
2022-08-21T14:14:13.176Z,25.90
2022-08-21T14:16:54.130Z,25.80
2022-08-21T14:19:24.577Z,25.70
2022-08-21T14:21:51.384Z,25.70
2022-08-21T14:24:24.314Z,25.60
2022-08-21T14:26:55.221Z,25.50
2022-08-21T14:29:28.645Z,25.50
2022-08-21T14:32:24.366Z,25.30
2022-08-21T14:34:52.944Z,25.40
2022-08-21T14:37:22.097Z,25.30
2022-08-21T14:39:48.844Z,25.20
2022-08-21T14:42:15.654Z,25.10
2022-08-21T14:44:42.377Z,25.10
2022-08-21T14:47:10.527Z,25.10
2022-08-21T14:49:37.250Z,25.10
2022-08-21T14:52:04.348Z,25.10
2022-08-21T14:54:32.658Z,25.10
2022-08-21T14:57:09.611Z,25.00
2022-08-21T14:59:37.045Z,25.00
2022-08-21T15:02:07.448Z,25.00
2022-08-21T15:04:35.011Z,25.00
2022-08-21T15:07:02.509Z,24.90
2022-08-21T15:09:29.213Z,24.70
2022-08-21T15:11:59.366Z,24.60
2022-08-21T15:14:28.961Z,24.60
2022-08-21T15:16:55.784Z,24.50
2022-08-21T15:19:23.081Z,24.50
2022-08-21T15:21:49.864Z,24.60
2022-08-21T15:24:17.214Z,24.50
2022-08-21T15:26:45.188Z,24.40
2022-08-21T15:29:11.935Z,24.40
2022-08-21T15:32:10.480Z,24.40
2022-08-21T15:34:38.010Z,24.50
2022-08-21T15:37:06.324Z,24.40
2022-08-21T15:39:37.149Z,24.40
2022-08-21T15:42:10.544Z,24.50
2022-08-21T15:44:38.958Z,24.40
2022-08-21T15:47:07.448Z,24.40
2022-08-21T15:49:34.121Z,24.30
2022-08-21T15:52:00.769Z,24.30
2022-08-21T15:54:27.429Z,24.20
2022-08-21T15:56:54.177Z,24.30
2022-08-21T15:59:23.118Z,24.30
2022-08-21T16:01:51.451Z,24.30
2022-08-21T16:04:26.774Z,24.30
2022-08-21T16:06:57.714Z,24.20
2022-08-21T16:09:28.838Z,24.20
2022-08-21T16:11:55.593Z,24.20
2022-08-21T16:14:22.333Z,24.20
2022-08-21T16:16:49.050Z,24.10
2022-08-21T16:19:15.904Z,24.20
2022-08-21T16:21:42.902Z,24.20
2022-08-21T16:24:09.605Z,24.30
2022-08-21T16:26:36.463Z,24.30
2022-08-21T16:29:04.336Z,24.30
2022-08-21T16:31:31.842Z,24.30
2022-08-21T16:33:59.185Z,24.20
2022-08-21T16:36:27.152Z,24.20
2022-08-21T16:38:55.253Z,24.20
2022-08-21T16:41:23.997Z,24.30
2022-08-21T16:43:51.841Z,24.20
2022-08-21T16:46:20.543Z,24.20
2022-08-21T16:48:47.458Z,24.30
2022-08-21T16:51:15.029Z,24.30
2022-08-21T16:53:42.869Z,24.30
2022-08-21T16:56:11.968Z,24.40
2022-08-21T16:58:42.063Z,24.30
2022-08-21T17:01:15.080Z,24.30
2022-08-21T17:03:46.705Z,24.30
2022-08-21T17:06:15.108Z,24.10
2022-08-21T17:08:42.174Z,24.10
2022-08-21T17:11:32.555Z,24.10
2022-08-21T17:14:04.145Z,24.00
2022-08-21T17:16:32.320Z,24.00
2022-08-21T17:18:58.983Z,24.00
2022-08-21T17:21:25.660Z,24.00
2022-08-21T17:23:52.516Z,23.90
2022-08-21T17:26:19.498Z,23.90
2022-08-21T17:28:47.441Z,23.90
2022-08-21T17:31:15.477Z,23.90
2022-08-21T17:33:50.497Z,23.80
2022-08-21T17:36:28.228Z,23.80
2022-08-21T17:38:56.124Z,23.80
2022-08-21T17:41:23.414Z,23.70
2022-08-21T17:43:51.501Z,23.60
2022-08-21T17:46:26.847Z,23.60
2022-08-21T17:48:54.120Z,23.60
2022-08-21T17:51:21.936Z,23.50
2022-08-21T17:53:48.716Z,23.50
2022-08-21T17:56:18.035Z,23.50
2022-08-21T17:58:49.351Z,23.40
2022-08-21T18:01:16.567Z,23.40
2022-08-21T18:03:43.408Z,23.40
2022-08-21T18:06:14.344Z,23.30
2022-08-21T18:08:43.654Z,23.30
2022-08-21T18:11:10.548Z,23.30
2022-08-21T18:13:50.011Z,23.20
2022-08-21T18:16:19.391Z,23.20
2022-08-21T18:18:48.913Z,23.20
2022-08-21T18:21:15.714Z,23.10
2022-08-21T18:23:44.177Z,23.10
2022-08-21T18:26:14.793Z,23.10
2022-08-21T18:28:44.050Z,23.00
2022-08-21T18:31:12.210Z,22.90
2022-08-21T18:33:40.292Z,22.90
2022-08-21T18:36:24.641Z,22.80
2022-08-21T18:38:52.302Z,22.80
2022-08-21T18:41:19.052Z,22.70
2022-08-21T18:43:45.757Z,22.60
2022-08-21T18:46:12.621Z,22.60
2022-08-21T18:48:40.365Z,22.60
2022-08-21T18:51:07.110Z,22.50
2022-08-21T18:53:34.150Z,22.50
2022-08-21T18:56:04.979Z,22.50
2022-08-21T18:58:32.854Z,22.40
2022-08-21T19:00:59.736Z,22.40
2022-08-21T19:03:26.581Z,22.30
2022-08-21T19:05:54.125Z,22.30
2022-08-21T19:08:24.068Z,22.20
2022-08-21T19:10:54.537Z,22.20
2022-08-21T19:13:22.865Z,22.10
2022-08-21T19:15:54.945Z,22.10
2022-08-21T19:18:28.515Z,22.00
2022-08-21T19:21:12.034Z,22.00
2022-08-21T19:23:38.846Z,21.90
2022-08-21T19:26:10.349Z,21.90
2022-08-21T19:28:44.727Z,21.80
2022-08-21T19:31:19.797Z,21.80
2022-08-21T19:34:22.570Z,21.80
2022-08-21T19:36:49.653Z,21.70
2022-08-21T19:39:17.847Z,21.70
2022-08-21T19:41:50.594Z,21.70
2022-08-21T19:44:21.545Z,21.60
2022-08-21T19:46:51.068Z,21.60
2022-08-21T19:49:21.139Z,21.50
2022-08-21T19:51:49.373Z,21.50
2022-08-21T19:54:20.702Z,21.40
2022-08-21T19:56:48.958Z,21.40
2022-08-21T19:59:18.332Z,21.30
2022-08-21T20:01:51.604Z,21.30
2022-08-21T20:04:19.439Z,21.30
2022-08-21T20:06:47.113Z,21.20
2022-08-21T20:09:14.729Z,21.20
2022-08-21T20:11:48.240Z,21.20
2022-08-21T20:14:18.203Z,21.20
2022-08-21T20:16:47.309Z,21.20
2022-08-21T20:19:14.717Z,21.10
2022-08-21T20:21:43.629Z,21.10
2022-08-21T20:24:28.895Z,21.00
2022-08-21T20:26:59.164Z,21.00
2022-08-21T20:29:28.797Z,21.00
2022-08-21T20:32:02.691Z,21.00
2022-08-21T20:34:31.959Z,21.00
2022-08-21T20:36:58.656Z,21.00
2022-08-21T20:39:27.678Z,20.90
2022-08-21T20:41:55.368Z,20.90
2022-08-21T20:44:22.737Z,20.80
2022-08-21T20:46:54.328Z,20.80
2022-08-21T20:49:27.749Z,20.80
2022-08-21T20:51:55.474Z,20.80
2022-08-21T20:54:56.252Z,20.70
2022-08-21T20:57:34.401Z,20.60
2022-08-21T21:00:08.177Z,20.60
2022-08-21T21:02:59.710Z,20.50
2022-08-21T21:05:31.814Z,20.50
2022-08-21T21:08:20.217Z,20.50
2022-08-21T21:11:00.544Z,20.40
2022-08-21T21:13:43.634Z,20.40
2022-08-21T21:16:25.292Z,20.40
2022-08-21T21:19:06.170Z,20.40
2022-08-21T21:21:40.507Z,20.30
2022-08-21T21:24:13.247Z,20.30
2022-08-21T21:26:48.826Z,20.30
2022-08-21T21:29:43.794Z,20.30
2022-08-21T21:32:18.001Z,20.20
2022-08-21T21:34:58.133Z,20.10
2022-08-21T21:37:42.092Z,20.10
2022-08-21T21:40:41.857Z,20.10
2022-08-21T21:43:17.604Z,20.10
2022-08-21T21:46:00.913Z,20.10
2022-08-21T21:48:46.297Z,20.20
2022-08-21T21:51:39.035Z,20.20
2022-08-21T21:54:27.619Z,20.20
2022-08-21T21:57:15.619Z,20.20
2022-08-21T21:59:46.591Z,20.20
2022-08-21T22:02:24.932Z,20.20
2022-08-21T22:05:26.629Z,20.20
2022-08-21T22:08:07.845Z,20.20
2022-08-21T22:10:43.207Z,20.10
2022-08-21T22:13:26.712Z,20.10
2022-08-21T22:15:55.048Z,20.10
2022-08-21T22:18:31.763Z,20.10
2022-08-21T22:21:23.994Z,20.10
2022-08-21T22:23:55.512Z,20.10
2022-08-21T22:26:36.222Z,20.10
2022-08-21T22:29:09.170Z,20.10
2022-08-21T22:34:23.194Z,20.10
2022-08-21T22:36:59.425Z,20.10
2022-08-21T22:39:39.598Z,20.10
2022-08-21T22:42:20.307Z,20.10
2022-08-21T22:44:51.666Z,20.10
2022-08-21T22:47:24.333Z,20.10
2022-08-21T22:49:54.539Z,20.00
2022-08-21T22:52:25.656Z,20.00
2022-08-21T22:54:57.558Z,20.00
2022-08-21T22:57:33.020Z,20.00
2022-08-21T23:00:34.759Z,20.00
2022-08-21T23:03:03.647Z,19.90
2022-08-21T23:05:30.634Z,19.90
2022-08-21T23:08:15.660Z,19.90
2022-08-21T23:10:56.435Z,19.80
2022-08-21T23:13:23.261Z,19.80
2022-08-21T23:16:04.966Z,19.80
2022-08-21T23:18:33.245Z,19.60
2022-08-21T23:21:06.491Z,19.50
2022-08-21T23:23:42.509Z,19.60
2022-08-21T23:26:17.271Z,19.70
2022-08-21T23:29:03.088Z,19.70
2022-08-21T23:31:58.067Z,19.70
2022-08-21T23:34:42.384Z,19.70
2022-08-21T23:37:49.472Z,19.60
2022-08-21T23:40:31.933Z,19.50
2022-08-21T23:43:16.861Z,19.50
2022-08-21T23:46:15.552Z,19.40
2022-08-21T23:49:05.941Z,19.40
2022-08-21T23:51:59.874Z,19.50
2022-08-21T23:54:33.361Z,19.50
2022-08-21T23:57:33.823Z,19.50
